sensor_id;sensor_type;location;lat;lon;timestamp;temperature;humidity
69823;SHT31;57119;52.516;13.508;2023-07-24T00:00:18;18.14;96.18
69823;SHT31;57119;52.516;13.508;2023-07-24T00:02:44;18.20;95.39
69823;SHT31;57119;52.516;13.508;2023-07-24T00:05:09;18.21;96.20
69823;SHT31;57119;52.516;13.508;2023-07-24T00:07:35;18.28;95.75
69823;SHT31;57119;52.516;13.508;2023-07-24T00:10:00;18.27;95.27
69823;SHT31;57119;52.516;13.508;2023-07-24T00:12:26;18.27;95.47
69823;SHT31;57119;52.516;13.508;2023-07-24T00:14:52;18.45;90.73
69823;SHT31;57119;52.516;13.508;2023-07-24T00:17:20;18.47;91.01
69823;SHT31;57119;52.516;13.508;2023-07-24T00:19:46;18.61;90.29
69823;SHT31;57119;52.516;13.508;2023-07-24T00:22:11;18.58;90.51
69823;SHT31;57119;52.516;13.508;2023-07-24T00:24:36;18.56;89.57
69823;SHT31;57119;52.516;13.508;2023-07-24T00:27:02;18.64;90.41
69823;SHT31;57119;52.516;13.508;2023-07-24T00:29:28;18.71;88.57
69823;SHT31;57119;52.516;13.508;2023-07-24T00:31:53;18.76;87.84
69823;SHT31;57119;52.516;13.508;2023-07-24T00:34:19;18.81;89.35
69823;SHT31;57119;52.516;13.508;2023-07-24T00:36:44;18.73;88.37
69823;SHT31;57119;52.516;13.508;2023-07-24T00:39:09;18.73;89.02
69823;SHT31;57119;52.516;13.508;2023-07-24T00:41:35;18.72;88.74
69823;SHT31;57119;52.516;13.508;2023-07-24T00:44:00;18.66;89.73
69823;SHT31;57119;52.516;13.508;2023-07-24T00:46:25;18.59;89.07
69823;SHT31;57119;52.516;13.508;2023-07-24T00:48:51;18.56;90.61
69823;SHT31;57119;52.516;13.508;2023-07-24T00:51:17;18.48;91.87
69823;SHT31;57119;52.516;13.508;2023-07-24T00:53:43;18.40;92.74
69823;SHT31;57119;52.516;13.508;2023-07-24T00:56:10;18.38;89.45
69823;SHT31;57119;52.516;13.508;2023-07-24T00:58:37;18.41;90.02
69823;SHT31;57119;52.516;13.508;2023-07-24T01:01:03;18.40;90.96
69823;SHT31;57119;52.516;13.508;2023-07-24T01:03:34;18.38;92.70
69823;SHT31;57119;52.516;13.508;2023-07-24T01:06:01;18.31;91.29
69823;SHT31;57119;52.516;13.508;2023-07-24T01:08:27;18.21;92.83
69823;SHT31;57119;52.516;13.508;2023-07-24T01:10:52;18.08;92.83
69823;SHT31;57119;52.516;13.508;2023-07-24T01:13:22;17.98;92.57
69823;SHT31;57119;52.516;13.508;2023-07-24T01:15:59;17.85;93.54
69823;SHT31;57119;52.516;13.508;2023-07-24T01:18:27;17.69;94.74
69823;SHT31;57119;52.516;13.508;2023-07-24T01:20:56;17.59;95.06
69823;SHT31;57119;52.516;13.508;2023-07-24T01:26:16;17.46;94.88
69823;SHT31;57119;52.516;13.508;2023-07-24T01:28:41;17.45;95.74
69823;SHT31;57119;52.516;13.508;2023-07-24T01:31:07;17.39;95.28
69823;SHT31;57119;52.516;13.508;2023-07-24T01:33:32;17.40;96.01
69823;SHT31;57119;52.516;13.508;2023-07-24T01:36:01;17.50;92.34
69823;SHT31;57119;52.516;13.508;2023-07-24T01:38:28;17.59;93.53
69823;SHT31;57119;52.516;13.508;2023-07-24T01:40:54;17.61;93.88
69823;SHT31;57119;52.516;13.508;2023-07-24T01:43:20;17.77;91.17
69823;SHT31;57119;52.516;13.508;2023-07-24T01:45:45;17.80;91.46
69823;SHT31;57119;52.516;13.508;2023-07-24T01:48:10;17.89;91.19
69823;SHT31;57119;52.516;13.508;2023-07-24T01:50:36;17.93;90.71
69823;SHT31;57119;52.516;13.508;2023-07-24T01:53:01;18.00;90.34
69823;SHT31;57119;52.516;13.508;2023-07-24T01:55:26;18.07;89.47
69823;SHT31;57119;52.516;13.508;2023-07-24T01:57:52;18.21;88.82
69823;SHT31;57119;52.516;13.508;2023-07-24T02:00:17;18.38;88.35
69823;SHT31;57119;52.516;13.508;2023-07-24T02:02:43;18.47;87.47
69823;SHT31;57119;52.516;13.508;2023-07-24T02:05:08;18.48;87.84
69823;SHT31;57119;52.516;13.508;2023-07-24T02:07:33;18.56;87.05
69823;SHT31;57119;52.516;13.508;2023-07-24T02:09:59;18.72;86.24
69823;SHT31;57119;52.516;13.508;2023-07-24T02:12:24;18.73;86.40
69823;SHT31;57119;52.516;13.508;2023-07-24T02:14:50;18.82;85.84
69823;SHT31;57119;52.516;13.508;2023-07-24T02:17:17;18.86;85.59
69823;SHT31;57119;52.516;13.508;2023-07-24T02:19:42;18.92;85.56
69823;SHT31;57119;52.516;13.508;2023-07-24T02:22:08;18.93;85.46
69823;SHT31;57119;52.516;13.508;2023-07-24T02:24:33;19.03;85.33
69823;SHT31;57119;52.516;13.508;2023-07-24T02:26:58;19.07;84.97
69823;SHT31;57119;52.516;13.508;2023-07-24T02:29:24;18.96;85.55
69823;SHT31;57119;52.516;13.508;2023-07-24T02:31:50;19.00;85.51
69823;SHT31;57119;52.516;13.508;2023-07-24T02:34:15;18.98;85.57
69823;SHT31;57119;52.516;13.508;2023-07-24T02:36:41;18.99;85.65
69823;SHT31;57119;52.516;13.508;2023-07-24T02:39:06;19.10;85.36
69823;SHT31;57119;52.516;13.508;2023-07-24T02:41:32;19.16;85.34
69823;SHT31;57119;52.516;13.508;2023-07-24T02:43:57;19.24;85.45
69823;SHT31;57119;52.516;13.508;2023-07-24T02:46:23;19.23;85.50
69823;SHT31;57119;52.516;13.508;2023-07-24T02:48:50;19.23;85.65
69823;SHT31;57119;52.516;13.508;2023-07-24T02:51:15;19.28;85.64
69823;SHT31;57119;52.516;13.508;2023-07-24T02:53:41;19.26;85.79
69823;SHT31;57119;52.516;13.508;2023-07-24T02:56:06;19.30;85.92
69823;SHT31;57119;52.516;13.508;2023-07-24T02:58:31;19.30;86.06
69823;SHT31;57119;52.516;13.508;2023-07-24T03:01:06;19.35;86.16
69823;SHT31;57119;52.516;13.508;2023-07-24T03:03:33;19.41;86.11
69823;SHT31;57119;52.516;13.508;2023-07-24T03:05:58;19.43;86.09
69823;SHT31;57119;52.516;13.508;2023-07-24T03:08:24;19.47;86.23
69823;SHT31;57119;52.516;13.508;2023-07-24T03:10:49;19.44;86.29
69823;SHT31;57119;52.516;13.508;2023-07-24T03:13:15;19.43;86.45
69823;SHT31;57119;52.516;13.508;2023-07-24T03:15:40;19.47;86.44
69823;SHT31;57119;52.516;13.508;2023-07-24T03:18:05;19.40;86.82
69823;SHT31;57119;52.516;13.508;2023-07-24T03:20:31;19.48;86.61
69823;SHT31;57119;52.516;13.508;2023-07-24T03:22:56;19.51;86.69
69823;SHT31;57119;52.516;13.508;2023-07-24T03:25:21;19.55;86.68
69823;SHT31;57119;52.516;13.508;2023-07-24T03:27:47;19.50;86.92
69823;SHT31;57119;52.516;13.508;2023-07-24T03:30:12;19.40;87.25
69823;SHT31;57119;52.516;13.508;2023-07-24T03:32:38;19.53;86.98
69823;SHT31;57119;52.516;13.508;2023-07-24T03:35:05;19.44;87.30
69823;SHT31;57119;52.516;13.508;2023-07-24T03:37:31;19.46;87.15
69823;SHT31;57119;52.516;13.508;2023-07-24T03:39:56;19.47;87.20
69823;SHT31;57119;52.516;13.508;2023-07-24T03:42:29;19.47;87.37
69823;SHT31;57119;52.516;13.508;2023-07-24T03:44:55;19.51;87.39
69823;SHT31;57119;52.516;13.508;2023-07-24T03:47:21;19.64;87.08
69823;SHT31;57119;52.516;13.508;2023-07-24T03:49:47;19.58;87.26
69823;SHT31;57119;52.516;13.508;2023-07-24T03:52:12;19.61;87.45
69823;SHT31;57119;52.516;13.508;2023-07-24T03:54:38;19.62;87.65
69823;SHT31;57119;52.516;13.508;2023-07-24T03:57:03;19.68;87.35
69823;SHT31;57119;52.516;13.508;2023-07-24T03:59:30;19.68;87.49
69823;SHT31;57119;52.516;13.508;2023-07-24T04:01:55;19.71;87.50
69823;SHT31;57119;52.516;13.508;2023-07-24T04:04:21;19.68;87.79
69823;SHT31;57119;52.516;13.508;2023-07-24T04:06:46;19.62;88.20
69823;SHT31;57119;52.516;13.508;2023-07-24T04:09:12;19.58;88.94
69823;SHT31;57119;52.516;13.508;2023-07-24T04:11:43;19.62;89.65
69823;SHT31;57119;52.516;13.508;2023-07-24T04:14:08;19.43;91.25
69823;SHT31;57119;52.516;13.508;2023-07-24T04:16:33;19.47;91.50
69823;SHT31;57119;52.516;13.508;2023-07-24T04:18:59;19.43;91.81
69823;SHT31;57119;52.516;13.508;2023-07-24T04:21:24;19.46;92.10
69823;SHT31;57119;52.516;13.508;2023-07-24T04:23:49;19.47;92.11
69823;SHT31;57119;52.516;13.508;2023-07-24T04:26:15;19.51;92.21
69823;SHT31;57119;52.516;13.508;2023-07-24T04:28:40;19.54;92.49
69823;SHT31;57119;52.516;13.508;2023-07-24T04:31:05;19.61;92.25
69823;SHT31;57119;52.516;13.508;2023-07-24T04:33:31;19.61;92.21
69823;SHT31;57119;52.516;13.508;2023-07-24T04:35:56;19.58;92.69
69823;SHT31;57119;52.516;13.508;2023-07-24T04:38:22;19.60;92.74
69823;SHT31;57119;52.516;13.508;2023-07-24T04:40:47;19.72;91.95
69823;SHT31;57119;52.516;13.508;2023-07-24T04:43:13;19.75;92.30
69823;SHT31;57119;52.516;13.508;2023-07-24T04:45:38;19.79;91.87
69823;SHT31;57119;52.516;13.508;2023-07-24T04:48:04;19.72;91.85
69823;SHT31;57119;52.516;13.508;2023-07-24T04:50:29;19.79;91.61
69823;SHT31;57119;52.516;13.508;2023-07-24T04:52:55;19.95;91.46
69823;SHT31;57119;52.516;13.508;2023-07-24T04:55:21;20.08;90.96
69823;SHT31;57119;52.516;13.508;2023-07-24T04:57:47;20.12;90.53
69823;SHT31;57119;52.516;13.508;2023-07-24T05:00:13;20.30;90.50
69823;SHT31;57119;52.516;13.508;2023-07-24T05:02:39;20.33;90.10
69823;SHT31;57119;52.516;13.508;2023-07-24T05:05:04;20.43;89.91
69823;SHT31;57119;52.516;13.508;2023-07-24T05:07:31;20.48;89.79
69823;SHT31;57119;52.516;13.508;2023-07-24T05:09:56;20.56;89.78
69823;SHT31;57119;52.516;13.508;2023-07-24T05:12:21;20.68;89.39
69823;SHT31;57119;52.516;13.508;2023-07-24T05:14:47;20.78;89.09
69823;SHT31;57119;52.516;13.508;2023-07-24T05:17:12;20.83;88.70
69823;SHT31;57119;52.516;13.508;2023-07-24T05:19:38;20.88;88.56
69823;SHT31;57119;52.516;13.508;2023-07-24T05:22:03;20.84;88.78
69823;SHT31;57119;52.516;13.508;2023-07-24T05:24:29;20.98;88.27
69823;SHT31;57119;52.516;13.508;2023-07-24T05:26:54;21.28;87.57
69823;SHT31;57119;52.516;13.508;2023-07-24T05:29:19;21.35;87.32
69823;SHT31;57119;52.516;13.508;2023-07-24T05:31:45;21.45;87.25
69823;SHT31;57119;52.516;13.508;2023-07-24T05:34:10;21.54;86.81
69823;SHT31;57119;52.516;13.508;2023-07-24T05:36:36;21.74;86.43
69823;SHT31;57119;52.516;13.508;2023-07-24T05:39:01;21.73;86.18
69823;SHT31;57119;52.516;13.508;2023-07-24T05:41:29;21.39;86.86
69823;SHT31;57119;52.516;13.508;2023-07-24T05:43:55;21.49;86.53
69823;SHT31;57119;52.516;13.508;2023-07-24T05:46:20;21.39;86.90
69823;SHT31;57119;52.516;13.508;2023-07-24T05:48:46;21.26;87.09
69823;SHT31;57119;52.516;13.508;2023-07-24T05:51:11;21.32;87.17
69823;SHT31;57119;52.516;13.508;2023-07-24T05:53:37;21.33;87.07
69823;SHT31;57119;52.516;13.508;2023-07-24T05:56:02;21.39;86.75
69823;SHT31;57119;52.516;13.508;2023-07-24T05:58:28;21.36;86.84
69823;SHT31;57119;52.516;13.508;2023-07-24T06:00:54;21.53;86.38
69823;SHT31;57119;52.516;13.508;2023-07-24T06:03:23;21.57;86.30
69823;SHT31;57119;52.516;13.508;2023-07-24T06:05:53;21.64;86.13
69823;SHT31;57119;52.516;13.508;2023-07-24T06:08:19;21.64;85.65
69823;SHT31;57119;52.516;13.508;2023-07-24T06:10:46;21.73;85.43
69823;SHT31;57119;52.516;13.508;2023-07-24T06:13:11;21.91;85.18
69823;SHT31;57119;52.516;13.508;2023-07-24T06:15:37;22.00;84.32
69823;SHT31;57119;52.516;13.508;2023-07-24T06:18:02;21.98;83.91
69823;SHT31;57119;52.516;13.508;2023-07-24T06:20:27;22.11;83.96
69823;SHT31;57119;52.516;13.508;2023-07-24T06:22:53;22.18;83.14
69823;SHT31;57119;52.516;13.508;2023-07-24T06:25:18;22.17;83.15
69823;SHT31;57119;52.516;13.508;2023-07-24T06:27:43;22.25;83.47
69823;SHT31;57119;52.516;13.508;2023-07-24T06:30:09;22.35;82.84
69823;SHT31;57119;52.516;13.508;2023-07-24T06:32:34;22.56;82.81
69823;SHT31;57119;52.516;13.508;2023-07-24T06:35:00;22.55;82.01
69823;SHT31;57119;52.516;13.508;2023-07-24T06:37:25;22.59;81.24
69823;SHT31;57119;52.516;13.508;2023-07-24T06:39:50;22.72;81.49
69823;SHT31;57119;52.516;13.508;2023-07-24T06:42:16;22.79;80.90
69823;SHT31;57119;52.516;13.508;2023-07-24T06:44:41;22.93;80.94
69823;SHT31;57119;52.516;13.508;2023-07-24T06:47:06;23.02;80.30
69823;SHT31;57119;52.516;13.508;2023-07-24T06:49:32;22.96;79.88
69823;SHT31;57119;52.516;13.508;2023-07-24T06:51:57;22.79;79.92
69823;SHT31;57119;52.516;13.508;2023-07-24T06:54:23;23.11;79.69
69823;SHT31;57119;52.516;13.508;2023-07-24T06:56:48;23.45;79.60
69823;SHT31;57119;52.516;13.508;2023-07-24T06:59:13;23.83;78.59
69823;SHT31;57119;52.516;13.508;2023-07-24T07:01:38;23.86;77.89
69823;SHT31;57119;52.516;13.508;2023-07-24T07:04:04;23.78;78.05
69823;SHT31;57119;52.516;13.508;2023-07-24T07:06:29;23.96;78.34
69823;SHT31;57119;52.516;13.508;2023-07-24T07:08:54;24.41;77.02
69823;SHT31;57119;52.516;13.508;2023-07-24T07:11:20;24.34;76.17
69823;SHT31;57119;52.516;13.508;2023-07-24T07:13:45;24.48;76.33
69823;SHT31;57119;52.516;13.508;2023-07-24T07:16:11;24.74;76.21
69823;SHT31;57119;52.516;13.508;2023-07-24T07:18:36;24.44;75.66
69823;SHT31;57119;52.516;13.508;2023-07-24T07:21:02;24.65;76.25
69823;SHT31;57119;52.516;13.508;2023-07-24T07:23:27;24.47;75.90
69823;SHT31;57119;52.516;13.508;2023-07-24T07:25:52;24.92;75.43
69823;SHT31;57119;52.516;13.508;2023-07-24T07:28:18;25.08;74.25
69823;SHT31;57119;52.516;13.508;2023-07-24T07:30:45;25.09;73.68
69823;SHT31;57119;52.516;13.508;2023-07-24T07:33:10;25.16;73.17
69823;SHT31;57119;52.516;13.508;2023-07-24T07:35:36;25.22;73.07
69823;SHT31;57119;52.516;13.508;2023-07-24T07:38:02;25.05;73.30
69823;SHT31;57119;52.516;13.508;2023-07-24T07:40:28;24.95;72.79
69823;SHT31;57119;52.516;13.508;2023-07-24T07:42:54;25.40;72.58
69823;SHT31;57119;52.516;13.508;2023-07-24T07:45:19;25.69;71.45
69823;SHT31;57119;52.516;13.508;2023-07-24T07:47:45;25.73;71.27
69823;SHT31;57119;52.516;13.508;2023-07-24T07:50:10;26.09;71.06
69823;SHT31;57119;52.516;13.508;2023-07-24T07:52:36;26.32;70.01
69823;SHT31;57119;52.516;13.508;2023-07-24T07:55:02;26.31;69.67
69823;SHT31;57119;52.516;13.508;2023-07-24T07:57:27;26.01;69.89
69823;SHT31;57119;52.516;13.508;2023-07-24T07:59:53;25.95;70.08
69823;SHT31;57119;52.516;13.508;2023-07-24T08:02:18;26.89;69.14
69823;SHT31;57119;52.516;13.508;2023-07-24T08:04:43;26.80;68.27
69823;SHT31;57119;52.516;13.508;2023-07-24T08:07:09;27.18;68.05
69823;SHT31;57119;52.516;13.508;2023-07-24T08:09:34;27.21;68.56
69823;SHT31;57119;52.516;13.508;2023-07-24T08:12:01;27.38;67.12
69823;SHT31;57119;52.516;13.508;2023-07-24T08:14:26;27.04;67.18
69823;SHT31;57119;52.516;13.508;2023-07-24T08:16:52;27.04;67.17
69823;SHT31;57119;52.516;13.508;2023-07-24T08:19:18;27.07;67.07
69823;SHT31;57119;52.516;13.508;2023-07-24T08:21:43;27.37;66.75
69823;SHT31;57119;52.516;13.508;2023-07-24T08:24:09;26.69;67.63
69823;SHT31;57119;52.516;13.508;2023-07-24T08:26:35;27.37;67.24
69823;SHT31;57119;52.516;13.508;2023-07-24T08:29:00;27.63;65.60
69823;SHT31;57119;52.516;13.508;2023-07-24T08:31:25;27.89;64.65
69823;SHT31;57119;52.516;13.508;2023-07-24T08:33:51;27.76;65.42
69823;SHT31;57119;52.516;13.508;2023-07-24T08:36:16;27.97;64.79
69823;SHT31;57119;52.516;13.508;2023-07-24T08:38:41;28.99;63.95
69823;SHT31;57119;52.516;13.508;2023-07-24T08:41:12;28.69;63.81
69823;SHT31;57119;52.516;13.508;2023-07-24T08:43:40;28.57;63.99
69823;SHT31;57119;52.516;13.508;2023-07-24T08:46:06;27.26;66.59
69823;SHT31;57119;52.516;13.508;2023-07-24T08:48:34;26.64;67.36
69823;SHT31;57119;52.516;13.508;2023-07-24T08:51:04;26.80;67.80
69823;SHT31;57119;52.516;13.508;2023-07-24T08:53:29;26.43;68.03
69823;SHT31;57119;52.516;13.508;2023-07-24T08:55:59;26.33;69.00
69823;SHT31;57119;52.516;13.508;2023-07-24T08:58:25;27.06;67.51
69823;SHT31;57119;52.516;13.508;2023-07-24T09:00:50;27.82;65.90
69823;SHT31;57119;52.516;13.508;2023-07-24T09:03:17;27.72;66.46
69823;SHT31;57119;52.516;13.508;2023-07-24T09:05:44;27.76;66.07
69823;SHT31;57119;52.516;13.508;2023-07-24T09:08:09;27.06;67.81
69823;SHT31;57119;52.516;13.508;2023-07-24T09:10:34;27.81;66.79
69823;SHT31;57119;52.516;13.508;2023-07-24T09:13:00;28.65;65.14
69823;SHT31;57119;52.516;13.508;2023-07-24T09:15:29;28.07;65.32
69823;SHT31;57119;52.516;13.508;2023-07-24T09:17:54;29.23;64.05
69823;SHT31;57119;52.516;13.508;2023-07-24T09:20:20;29.45;64.31
69823;SHT31;57119;52.516;13.508;2023-07-24T09:22:52;28.74;63.90
69823;SHT31;57119;52.516;13.508;2023-07-24T09:25:29;28.71;64.29
69823;SHT31;57119;52.516;13.508;2023-07-24T09:27:55;29.37;63.24
69823;SHT31;57119;52.516;13.508;2023-07-24T09:30:20;29.37;63.52
69823;SHT31;57119;52.516;13.508;2023-07-24T09:32:55;29.03;63.69
69823;SHT31;57119;52.516;13.508;2023-07-24T09:35:21;28.20;65.32
69823;SHT31;57119;52.516;13.508;2023-07-24T09:38:02;28.20;65.00
69823;SHT31;57119;52.516;13.508;2023-07-24T09:40:27;27.99;65.21
69823;SHT31;57119;52.516;13.508;2023-07-24T09:42:52;27.96;65.06
69823;SHT31;57119;52.516;13.508;2023-07-24T09:45:18;27.69;65.46
69823;SHT31;57119;52.516;13.508;2023-07-24T09:47:44;27.33;65.92
69823;SHT31;57119;52.516;13.508;2023-07-24T09:50:10;27.56;65.96
69823;SHT31;57119;52.516;13.508;2023-07-24T09:52:36;28.64;64.05
69823;SHT31;57119;52.516;13.508;2023-07-24T09:55:19;28.95;63.27
69823;SHT31;57119;52.516;13.508;2023-07-24T09:57:48;28.44;63.89
69823;SHT31;57119;52.516;13.508;2023-07-24T10:00:14;28.75;64.25
69823;SHT31;57119;52.516;13.508;2023-07-24T10:02:40;29.47;62.16
69823;SHT31;57119;52.516;13.508;2023-07-24T10:05:06;30.21;61.86
69823;SHT31;57119;52.516;13.508;2023-07-24T10:07:33;29.80;61.19
69823;SHT31;57119;52.516;13.508;2023-07-24T10:10:00;30.08;61.21
69823;SHT31;57119;52.516;13.508;2023-07-24T10:12:26;30.42;59.77
69823;SHT31;57119;52.516;13.508;2023-07-24T10:14:56;32.05;58.20
69823;SHT31;57119;52.516;13.508;2023-07-24T10:17:37;32.28;57.85
69823;SHT31;57119;52.516;13.508;2023-07-24T10:20:04;32.05;57.06
69823;SHT31;57119;52.516;13.508;2023-07-24T10:22:30;32.00;57.17
69823;SHT31;57119;52.516;13.508;2023-07-24T10:24:55;31.73;56.99
69823;SHT31;57119;52.516;13.508;2023-07-24T10:27:24;31.82;56.67
69823;SHT31;57119;52.516;13.508;2023-07-24T10:30:04;31.61;57.25
69823;SHT31;57119;52.516;13.508;2023-07-24T10:32:30;31.45;57.60
69823;SHT31;57119;52.516;13.508;2023-07-24T10:35:00;32.20;56.04
69823;SHT31;57119;52.516;13.508;2023-07-24T10:37:32;31.02;57.47
69823;SHT31;57119;52.516;13.508;2023-07-24T10:39:59;31.28;57.80
69823;SHT31;57119;52.516;13.508;2023-07-24T10:42:24;30.88;57.65
69823;SHT31;57119;52.516;13.508;2023-07-24T10:44:50;31.27;57.69
69823;SHT31;57119;52.516;13.508;2023-07-24T10:47:15;30.84;57.72
69823;SHT31;57119;52.516;13.508;2023-07-24T10:49:48;31.00;58.24
69823;SHT31;57119;52.516;13.508;2023-07-24T10:52:14;30.88;57.95
69823;SHT31;57119;52.516;13.508;2023-07-24T10:54:39;30.24;57.75
69823;SHT31;57119;52.516;13.508;2023-07-24T10:57:05;31.11;56.86
69823;SHT31;57119;52.516;13.508;2023-07-24T10:59:40;32.43;54.58
69823;SHT31;57119;52.516;13.508;2023-07-24T11:02:07;31.83;55.02
69823;SHT31;57119;52.516;13.508;2023-07-24T11:04:32;32.10;55.24
69823;SHT31;57119;52.516;13.508;2023-07-24T11:07:00;31.85;54.60
69823;SHT31;57119;52.516;13.508;2023-07-24T11:09:35;32.86;53.02
69823;SHT31;57119;52.516;13.508;2023-07-24T11:12:15;31.38;54.49
69823;SHT31;57119;52.516;13.508;2023-07-24T11:14:51;32.07;54.01
69823;SHT31;57119;52.516;13.508;2023-07-24T11:17:16;31.41;54.14
69823;SHT31;57119;52.516;13.508;2023-07-24T11:19:42;32.57;53.41
69823;SHT31;57119;52.516;13.508;2023-07-24T11:22:07;32.48;53.23
69823;SHT31;57119;52.516;13.508;2023-07-24T11:24:42;31.15;55.16
69823;SHT31;57119;52.516;13.508;2023-07-24T11:27:16;30.79;56.75
69823;SHT31;57119;52.516;13.508;2023-07-24T11:29:47;30.74;55.83
69823;SHT31;57119;52.516;13.508;2023-07-24T11:32:17;29.92;56.94
69823;SHT31;57119;52.516;13.508;2023-07-24T11:34:43;29.23;58.13
69823;SHT31;57119;52.516;13.508;2023-07-24T11:37:08;29.20;58.73
69823;SHT31;57119;52.516;13.508;2023-07-24T11:39:34;29.18;58.37
69823;SHT31;57119;52.516;13.508;2023-07-24T11:42:00;28.89;59.20
69823;SHT31;57119;52.516;13.508;2023-07-24T11:44:29;28.92;59.80
69823;SHT31;57119;52.516;13.508;2023-07-24T11:47:05;28.87;58.98
69823;SHT31;57119;52.516;13.508;2023-07-24T11:49:31;29.18;58.61
69823;SHT31;57119;52.516;13.508;2023-07-24T11:52:06;29.81;57.82
69823;SHT31;57119;52.516;13.508;2023-07-24T11:54:35;31.46;55.63
69823;SHT31;57119;52.516;13.508;2023-07-24T11:57:01;30.52;55.94
69823;SHT31;57119;52.516;13.508;2023-07-24T11:59:26;29.56;56.63
69823;SHT31;57119;52.516;13.508;2023-07-24T12:01:52;29.16;57.71
69823;SHT31;57119;52.516;13.508;2023-07-24T12:04:18;28.72;58.47
69823;SHT31;57119;52.516;13.508;2023-07-24T12:06:44;28.67;59.04
69823;SHT31;57119;52.516;13.508;2023-07-24T12:09:10;28.85;58.93
69823;SHT31;57119;52.516;13.508;2023-07-24T12:11:43;28.61;59.58
69823;SHT31;57119;52.516;13.508;2023-07-24T12:14:09;28.60;59.82
69823;SHT31;57119;52.516;13.508;2023-07-24T12:16:35;28.44;59.68
69823;SHT31;57119;52.516;13.508;2023-07-24T12:19:01;28.18;59.73
69823;SHT31;57119;52.516;13.508;2023-07-24T12:21:26;27.99;59.81
69823;SHT31;57119;52.516;13.508;2023-07-24T12:23:52;27.73;60.38
69823;SHT31;57119;52.516;13.508;2023-07-24T12:26:17;27.63;60.41
69823;SHT31;57119;52.516;13.508;2023-07-24T12:28:43;27.51;61.43
69823;SHT31;57119;52.516;13.508;2023-07-24T12:31:08;27.33;63.65
69823;SHT31;57119;52.516;13.508;2023-07-24T12:33:34;26.63;67.50
69823;SHT31;57119;52.516;13.508;2023-07-24T12:35:59;26.15;69.57
69823;SHT31;57119;52.516;13.508;2023-07-24T12:38:24;25.60;71.32
69823;SHT31;57119;52.516;13.508;2023-07-24T12:40:50;25.45;72.34
69823;SHT31;57119;52.516;13.508;2023-07-24T12:43:15;25.25;73.35
69823;SHT31;57119;52.516;13.508;2023-07-24T12:45:40;24.92;74.22
69823;SHT31;57119;52.516;13.508;2023-07-24T12:48:06;24.77;75.30
69823;SHT31;57119;52.516;13.508;2023-07-24T12:50:31;24.88;75.21
69823;SHT31;57119;52.516;13.508;2023-07-24T12:52:56;25.12;75.26
69823;SHT31;57119;52.516;13.508;2023-07-24T12:55:22;26.84;72.24
69823;SHT31;57119;52.516;13.508;2023-07-24T12:57:47;26.24;71.92
69823;SHT31;57119;52.516;13.508;2023-07-24T13:00:13;25.85;72.75
69823;SHT31;57119;52.516;13.508;2023-07-24T13:02:38;25.80;73.46
69823;SHT31;57119;52.516;13.508;2023-07-24T13:05:04;25.75;73.06
69823;SHT31;57119;52.516;13.508;2023-07-24T13:07:29;25.56;73.25
69823;SHT31;57119;52.516;13.508;2023-07-24T13:09:55;25.25;74.58
69823;SHT31;57119;52.516;13.508;2023-07-24T13:12:20;24.99;75.63
69823;SHT31;57119;52.516;13.508;2023-07-24T13:14:45;24.85;75.48
69823;SHT31;57119;52.516;13.508;2023-07-24T13:17:11;24.69;76.75
69823;SHT31;57119;52.516;13.508;2023-07-24T13:19:36;24.64;76.73
69823;SHT31;57119;52.516;13.508;2023-07-24T13:22:02;24.63;77.61
69823;SHT31;57119;52.516;13.508;2023-07-24T13:24:27;24.78;77.11
69823;SHT31;57119;52.516;13.508;2023-07-24T13:26:53;25.19;77.35
69823;SHT31;57119;52.516;13.508;2023-07-24T13:29:18;25.50;75.93
69823;SHT31;57119;52.516;13.508;2023-07-24T13:31:43;25.57;76.32
69823;SHT31;57119;52.516;13.508;2023-07-24T13:34:09;25.74;76.04
69823;SHT31;57119;52.516;13.508;2023-07-24T13:36:34;25.77;75.44
69823;SHT31;57119;52.516;13.508;2023-07-24T13:39:00;26.18;74.91
69823;SHT31;57119;52.516;13.508;2023-07-24T13:41:25;26.49;74.03
69823;SHT31;57119;52.516;13.508;2023-07-24T13:43:51;27.42;73.37
69823;SHT31;57119;52.516;13.508;2023-07-24T13:46:16;28.64;71.45
69823;SHT31;57119;52.516;13.508;2023-07-24T13:48:41;29.74;67.89
69823;SHT31;57119;52.516;13.508;2023-07-24T13:51:07;29.97;67.26
69823;SHT31;57119;52.516;13.508;2023-07-24T13:53:32;29.97;68.27
69823;SHT31;57119;52.516;13.508;2023-07-24T13:55:58;30.29;67.99
69823;SHT31;57119;52.516;13.508;2023-07-24T13:58:23;29.56;68.44
69823;SHT31;57119;52.516;13.508;2023-07-24T14:00:48;29.42;70.54
69823;SHT31;57119;52.516;13.508;2023-07-24T14:03:14;28.85;72.52
69823;SHT31;57119;52.516;13.508;2023-07-24T14:05:39;28.16;74.13
69823;SHT31;57119;52.516;13.508;2023-07-24T14:08:06;27.83;75.20
69823;SHT31;57119;52.516;13.508;2023-07-24T14:10:32;27.34;76.21
69823;SHT31;57119;52.516;13.508;2023-07-24T14:12:57;26.83;76.39
69823;SHT31;57119;52.516;13.508;2023-07-24T14:15:23;26.35;77.45
69823;SHT31;57119;52.516;13.508;2023-07-24T14:17:48;26.29;78.57
69823;SHT31;57119;52.516;13.508;2023-07-24T14:20:13;26.26;78.68
69823;SHT31;57119;52.516;13.508;2023-07-24T14:22:39;26.48;77.87
69823;SHT31;57119;52.516;13.508;2023-07-24T14:25:05;26.63;77.37
69823;SHT31;57119;52.516;13.508;2023-07-24T14:27:31;27.12;76.26
69823;SHT31;57119;52.516;13.508;2023-07-24T14:29:56;27.04;76.23
69823;SHT31;57119;52.516;13.508;2023-07-24T14:32:22;26.73;76.62
69823;SHT31;57119;52.516;13.508;2023-07-24T14:34:50;26.36;77.50
69823;SHT31;57119;52.516;13.508;2023-07-24T14:37:16;26.17;78.32
69823;SHT31;57119;52.516;13.508;2023-07-24T14:39:41;26.31;77.42
69823;SHT31;57119;52.516;13.508;2023-07-24T14:42:07;26.00;77.64
69823;SHT31;57119;52.516;13.508;2023-07-24T14:44:32;25.81;78.50
69823;SHT31;57119;52.516;13.508;2023-07-24T14:46:57;25.67;79.40
69823;SHT31;57119;52.516;13.508;2023-07-24T14:49:23;25.66;78.94
69823;SHT31;57119;52.516;13.508;2023-07-24T14:51:48;25.50;80.04
69823;SHT31;57119;52.516;13.508;2023-07-24T14:54:13;25.60;80.01
69823;SHT31;57119;52.516;13.508;2023-07-24T14:56:39;25.49;80.12
69823;SHT31;57119;52.516;13.508;2023-07-24T14:59:04;25.74;80.56
69823;SHT31;57119;52.516;13.508;2023-07-24T15:01:29;25.80;80.29
69823;SHT31;57119;52.516;13.508;2023-07-24T15:03:58;25.94;80.13
69823;SHT31;57119;52.516;13.508;2023-07-24T15:06:24;25.98;80.04
69823;SHT31;57119;52.516;13.508;2023-07-24T15:08:49;26.04;80.18
69823;SHT31;57119;52.516;13.508;2023-07-24T15:11:21;26.09;79.98